sensor_id;sensor_type;location;lat;lon;timestamp;temperature;humidity
18225;DHT22;9237;48.590;8.854;2023-04-10T00:00:30;3.30;99.90
18225;DHT22;9237;48.590;8.854;2023-04-10T00:02:57;3.20;99.90
18225;DHT22;9237;48.590;8.854;2023-04-10T00:05:25;3.10;99.90
18225;DHT22;9237;48.590;8.854;2023-04-10T00:07:52;3.10;99.90
18225;DHT22;9237;48.590;8.854;2023-04-10T00:10:19;2.90;99.90
18225;DHT22;9237;48.590;8.854;2023-04-10T00:12:46;2.80;99.90
18225;DHT22;9237;48.590;8.854;2023-04-10T00:15:14;2.90;99.90
18225;DHT22;9237;48.590;8.854;2023-04-10T00:17:41;2.80;99.90
18225;DHT22;9237;48.590;8.854;2023-04-10T00:20:09;2.70;99.90
18225;DHT22;9237;48.590;8.854;2023-04-10T00:22:36;2.70;99.90
18225;DHT22;9237;48.590;8.854;2023-04-10T00:25:03;2.70;99.90
18225;DHT22;9237;48.590;8.854;2023-04-10T00:27:31;2.70;99.90
18225;DHT22;9237;48.590;8.854;2023-04-10T00:29:57;2.70;99.90
18225;DHT22;9237;48.590;8.854;2023-04-10T00:32:25;2.50;99.90
18225;DHT22;9237;48.590;8.854;2023-04-10T00:34:52;2.40;99.90
18225;DHT22;9237;48.590;8.854;2023-04-10T00:37:19;2.20;99.90
18225;DHT22;9237;48.590;8.854;2023-04-10T00:39:46;2.20;99.90
18225;DHT22;9237;48.590;8.854;2023-04-10T00:42:13;2.20;99.90
18225;DHT22;9237;48.590;8.854;2023-04-10T00:44:40;2.10;99.90
18225;DHT22;9237;48.590;8.854;2023-04-10T00:47:07;2.10;99.90
18225;DHT22;9237;48.590;8.854;2023-04-10T00:49:35;1.90;99.90
18225;DHT22;9237;48.590;8.854;2023-04-10T00:52:02;1.70;99.90
18225;DHT22;9237;48.590;8.854;2023-04-10T00:54:30;1.90;99.90
18225;DHT22;9237;48.590;8.854;2023-04-10T00:56:57;1.90;99.90
18225;DHT22;9237;48.590;8.854;2023-04-10T00:59:24;1.70;99.90
18225;DHT22;9237;48.590;8.854;2023-04-10T01:01:51;1.70;99.90
18225;DHT22;9237;48.590;8.854;2023-04-10T01:04:18;1.60;99.90
18225;DHT22;9237;48.590;8.854;2023-04-10T01:06:53;1.60;99.90
18225;DHT22;9237;48.590;8.854;2023-04-10T01:09:31;1.50;99.90
18225;DHT22;9237;48.590;8.854;2023-04-10T01:12:10;1.50;99.90
18225;DHT22;9237;48.590;8.854;2023-04-10T01:14:45;1.40;99.90
18225;DHT22;9237;48.590;8.854;2023-04-10T01:17:18;1.30;99.90
18225;DHT22;9237;48.590;8.854;2023-04-10T01:20:03;1.30;99.90
18225;DHT22;9237;48.590;8.854;2023-04-10T01:22:36;1.30;99.90
18225;DHT22;9237;48.590;8.854;2023-04-10T01:25:18;1.40;99.90
18225;DHT22;9237;48.590;8.854;2023-04-10T01:28:04;1.40;99.90
18225;DHT22;9237;48.590;8.854;2023-04-10T01:30:34;1.30;99.90
18225;DHT22;9237;48.590;8.854;2023-04-10T01:33:03;1.30;99.90
18225;DHT22;9237;48.590;8.854;2023-04-10T01:35:32;1.70;99.90
18225;DHT22;9237;48.590;8.854;2023-04-10T01:38:01;1.50;99.90
18225;DHT22;9237;48.590;8.854;2023-04-10T01:40:28;1.50;99.90
18225;DHT22;9237;48.590;8.854;2023-04-10T01:42:59;1.40;99.90
18225;DHT22;9237;48.590;8.854;2023-04-10T01:45:27;1.10;99.90
18225;DHT22;9237;48.590;8.854;2023-04-10T01:47:56;1.00;99.90
18225;DHT22;9237;48.590;8.854;2023-04-10T01:50:23;1.10;99.90
18225;DHT22;9237;48.590;8.854;2023-04-10T01:52:53;1.10;99.90
18225;DHT22;9237;48.590;8.854;2023-04-10T01:55:20;1.10;99.90
18225;DHT22;9237;48.590;8.854;2023-04-10T01:57:47;1.10;99.90
18225;DHT22;9237;48.590;8.854;2023-04-10T02:00:15;1.00;99.90
18225;DHT22;9237;48.590;8.854;2023-04-10T02:02:42;1.90;99.90
18225;DHT22;9237;48.590;8.854;2023-04-10T02:05:10;1.00;99.90
18225;DHT22;9237;48.590;8.854;2023-04-10T02:07:43;1.40;99.90
18225;DHT22;9237;48.590;8.854;2023-04-10T02:10:14;1.00;99.90
18225;DHT22;9237;48.590;8.854;2023-04-10T02:12:45;0.80;99.90
18225;DHT22;9237;48.590;8.854;2023-04-10T02:15:16;0.80;99.90
18225;DHT22;9237;48.590;8.854;2023-04-10T02:17:44;0.80;99.90
18225;DHT22;9237;48.590;8.854;2023-04-10T02:20:13;0.80;99.90
18225;DHT22;9237;48.590;8.854;2023-04-10T02:22:42;1.00;99.90
18225;DHT22;9237;48.590;8.854;2023-04-10T02:25:09;1.10;99.90
18225;DHT22;9237;48.590;8.854;2023-04-10T02:27:37;1.20;99.90
18225;DHT22;9237;48.590;8.854;2023-04-10T02:30:05;1.30;99.90
18225;DHT22;9237;48.590;8.854;2023-04-10T02:32:32;1.40;99.90
18225;DHT22;9237;48.590;8.854;2023-04-10T02:34:59;1.40;99.90
18225;DHT22;9237;48.590;8.854;2023-04-10T02:37:28;1.50;99.90
18225;DHT22;9237;48.590;8.854;2023-04-10T02:39:55;1.40;99.90
18225;DHT22;9237;48.590;8.854;2023-04-10T02:42:22;1.40;99.90
18225;DHT22;9237;48.590;8.854;2023-04-10T02:44:49;1.40;99.90
18225;DHT22;9237;48.590;8.854;2023-04-10T02:47:16;1.40;99.90
18225;DHT22;9237;48.590;8.854;2023-04-10T02:49:43;1.50;99.90
18225;DHT22;9237;48.590;8.854;2023-04-10T02:52:10;1.60;99.90
18225;DHT22;9237;48.590;8.854;2023-04-10T02:54:38;1.70;99.90
18225;DHT22;9237;48.590;8.854;2023-04-10T02:57:05;1.60;99.90
18225;DHT22;9237;48.590;8.854;2023-04-10T02:59:31;1.40;99.90
18225;DHT22;9237;48.590;8.854;2023-04-10T03:01:58;1.10;99.90
18225;DHT22;9237;48.590;8.854;2023-04-10T03:04:25;1.00;99.90
18225;DHT22;9237;48.590;8.854;2023-04-10T03:06:52;0.90;99.90
18225;DHT22;9237;48.590;8.854;2023-04-10T03:09:19;0.80;99.90
18225;DHT22;9237;48.590;8.854;2023-04-10T03:11:47;0.70;99.90
18225;DHT22;9237;48.590;8.854;2023-04-10T03:14:14;0.60;99.90
18225;DHT22;9237;48.590;8.854;2023-04-10T03:16:41;0.70;99.90
18225;DHT22;9237;48.590;8.854;2023-04-10T03:19:08;0.80;99.90
18225;DHT22;9237;48.590;8.854;2023-04-10T03:21:34;0.80;99.90
18225;DHT22;9237;48.590;8.854;2023-04-10T03:24:01;0.80;99.90
18225;DHT22;9237;48.590;8.854;2023-04-10T03:26:28;0.70;99.90
18225;DHT22;9237;48.590;8.854;2023-04-10T03:28:56;0.60;99.90
18225;DHT22;9237;48.590;8.854;2023-04-10T03:31:23;0.60;99.90
18225;DHT22;9237;48.590;8.854;2023-04-10T03:33:50;0.60;99.90
18225;DHT22;9237;48.590;8.854;2023-04-10T03:36:16;0.70;99.90
18225;DHT22;9237;48.590;8.854;2023-04-10T03:38:43;0.70;99.90
18225;DHT22;9237;48.590;8.854;2023-04-10T03:41:10;0.60;99.90
18225;DHT22;9237;48.590;8.854;2023-04-10T03:43:38;0.60;99.90
18225;DHT22;9237;48.590;8.854;2023-04-10T03:46:06;0.60;99.90
18225;DHT22;9237;48.590;8.854;2023-04-10T03:48:33;0.60;99.90
18225;DHT22;9237;48.590;8.854;2023-04-10T03:51:00;0.70;99.90
18225;DHT22;9237;48.590;8.854;2023-04-10T03:53:27;0.70;99.90
18225;DHT22;9237;48.590;8.854;2023-04-10T03:55:54;0.60;99.90
18225;DHT22;9237;48.590;8.854;2023-04-10T03:58:21;0.50;99.90
18225;DHT22;9237;48.590;8.854;2023-04-10T04:00:48;0.50;99.90
18225;DHT22;9237;48.590;8.854;2023-04-10T04:03:16;0.50;99.90
18225;DHT22;9237;48.590;8.854;2023-04-10T04:05:43;0.50;99.90
18225;DHT22;9237;48.590;8.854;2023-04-10T04:08:09;0.50;99.90
18225;DHT22;9237;48.590;8.854;2023-04-10T04:10:38;0.40;99.90
18225;DHT22;9237;48.590;8.854;2023-04-10T04:13:05;0.20;99.90
18225;DHT22;9237;48.590;8.854;2023-04-10T04:15:31;0.10;99.90
18225;DHT22;9237;48.590;8.854;2023-04-10T04:17:58;0.10;99.90
18225;DHT22;9237;48.590;8.854;2023-04-10T04:20:27;0.00;99.90
18225;DHT22;9237;48.590;8.854;2023-04-10T04:22:54;0.10;99.90
18225;DHT22;9237;48.590;8.854;2023-04-10T04:25:21;-0.10;99.90
18225;DHT22;9237;48.590;8.854;2023-04-10T04:27:48;0.00;99.90
18225;DHT22;9237;48.590;8.854;2023-04-10T04:30:15;0.10;99.90
18225;DHT22;9237;48.590;8.854;2023-04-10T04:32:42;0.20;99.90
18225;DHT22;9237;48.590;8.854;2023-04-10T04:35:09;0.20;99.90
18225;DHT22;9237;48.590;8.854;2023-04-10T04:37:37;0.20;99.90
18225;DHT22;9237;48.590;8.854;2023-04-10T04:40:05;0.10;99.90
18225;DHT22;9237;48.590;8.854;2023-04-10T04:42:32;0.00;99.90
18225;DHT22;9237;48.590;8.854;2023-04-10T04:44:59;-0.10;99.90
18225;DHT22;9237;48.590;8.854;2023-04-10T04:47:25;-0.20;99.90
18225;DHT22;9237;48.590;8.854;2023-04-10T04:49:52;-0.10;99.90
18225;DHT22;9237;48.590;8.854;2023-04-10T04:52:19;-0.10;99.90
18225;DHT22;9237;48.590;8.854;2023-04-10T04:54:47;-0.10;99.90
18225;DHT22;9237;48.590;8.854;2023-04-10T04:57:14;-0.10;99.90
18225;DHT22;9237;48.590;8.854;2023-04-10T04:59:40;0.00;99.90
18225;DHT22;9237;48.590;8.854;2023-04-10T05:02:07;0.10;99.90
18225;DHT22;9237;48.590;8.854;2023-04-10T05:04:34;0.20;99.90
18225;DHT22;9237;48.590;8.854;2023-04-10T05:07:01;0.20;99.90
18225;DHT22;9237;48.590;8.854;2023-04-10T05:09:28;0.20;99.90
18225;DHT22;9237;48.590;8.854;2023-04-10T05:11:56;0.20;99.90
18225;DHT22;9237;48.590;8.854;2023-04-10T05:14:23;0.30;99.90
18225;DHT22;9237;48.590;8.854;2023-04-10T05:16:50;0.40;99.90
18225;DHT22;9237;48.590;8.854;2023-04-10T05:19:16;0.70;99.90
18225;DHT22;9237;48.590;8.854;2023-04-10T05:21:43;0.60;99.90
18225;DHT22;9237;48.590;8.854;2023-04-10T05:24:10;0.70;99.90
18225;DHT22;9237;48.590;8.854;2023-04-10T05:26:37;0.80;99.90
18225;DHT22;9237;48.590;8.854;2023-04-10T05:29:06;0.90;99.90
18225;DHT22;9237;48.590;8.854;2023-04-10T05:31:33;1.00;99.90
18225;DHT22;9237;48.590;8.854;2023-04-10T05:34:00;1.10;99.90
18225;DHT22;9237;48.590;8.854;2023-04-10T05:36:27;1.20;99.90
18225;DHT22;9237;48.590;8.854;2023-04-10T05:38:53;1.30;99.90
18225;DHT22;9237;48.590;8.854;2023-04-10T05:41:20;1.50;99.90
18225;DHT22;9237;48.590;8.854;2023-04-10T05:43:47;1.70;99.90
18225;DHT22;9237;48.590;8.854;2023-04-10T05:46:15;1.90;99.90
18225;DHT22;9237;48.590;8.854;2023-04-10T05:48:42;2.00;99.90
18225;DHT22;9237;48.590;8.854;2023-04-10T05:51:09;2.10;99.90
18225;DHT22;9237;48.590;8.854;2023-04-10T05:53:36;2.20;99.90
18225;DHT22;9237;48.590;8.854;2023-04-10T05:56:03;2.30;99.90
18225;DHT22;9237;48.590;8.854;2023-04-10T05:58:30;2.50;99.90
18225;DHT22;9237;48.590;8.854;2023-04-10T06:00:57;2.60;99.90
18225;DHT22;9237;48.590;8.854;2023-04-10T06:03:25;2.80;99.90
18225;DHT22;9237;48.590;8.854;2023-04-10T06:05:54;3.00;99.90
18225;DHT22;9237;48.590;8.854;2023-04-10T06:08:21;3.10;99.90
18225;DHT22;9237;48.590;8.854;2023-04-10T06:10:48;3.20;99.90
18225;DHT22;9237;48.590;8.854;2023-04-10T06:13:15;3.20;99.90
18225;DHT22;9237;48.590;8.854;2023-04-10T06:15:42;3.30;99.90
18225;DHT22;9237;48.590;8.854;2023-04-10T06:18:08;3.30;99.90
18225;DHT22;9237;48.590;8.854;2023-04-10T06:20:36;3.50;99.90
18225;DHT22;9237;48.590;8.854;2023-04-10T06:23:04;3.70;99.90
18225;DHT22;9237;48.590;8.854;2023-04-10T06:25:31;4.10;99.90
18225;DHT22;9237;48.590;8.854;2023-04-10T06:27:58;4.40;99.90
18225;DHT22;9237;48.590;8.854;2023-04-10T06:30:25;4.80;99.90
18225;DHT22;9237;48.590;8.854;2023-04-10T06:32:52;5.10;99.90
18225;DHT22;9237;48.590;8.854;2023-04-10T06:35:19;5.50;99.90
18225;DHT22;9237;48.590;8.854;2023-04-10T06:37:47;5.80;99.90
18225;DHT22;9237;48.590;8.854;2023-04-10T06:40:14;6.10;99.90
18225;DHT22;9237;48.590;8.854;2023-04-10T06:42:41;6.40;99.90
18225;DHT22;9237;48.590;8.854;2023-04-10T06:45:08;6.60;99.90
18225;DHT22;9237;48.590;8.854;2023-04-10T06:47:35;6.90;99.90
18225;DHT22;9237;48.590;8.854;2023-04-10T06:50:02;7.00;99.90
18225;DHT22;9237;48.590;8.854;2023-04-10T06:52:29;7.10;99.90
18225;DHT22;9237;48.590;8.854;2023-04-10T06:54:57;7.20;99.90
18225;DHT22;9237;48.590;8.854;2023-04-10T06:57:24;7.40;99.90
18225;DHT22;9237;48.590;8.854;2023-04-10T06:59:50;7.70;99.90
18225;DHT22;9237;48.590;8.854;2023-04-10T07:02:17;8.20;99.90
18225;DHT22;9237;48.590;8.854;2023-04-10T07:04:44;8.40;99.90
18225;DHT22;9237;48.590;8.854;2023-04-10T07:07:11;9.00;99.90
18225;DHT22;9237;48.590;8.854;2023-04-10T07:09:38;9.40;99.90
18225;DHT22;9237;48.590;8.854;2023-04-10T07:12:07;9.60;99.90
18225;DHT22;9237;48.590;8.854;2023-04-10T07:14:33;10.00;99.90
18225;DHT22;9237;48.590;8.854;2023-04-10T07:17:01;10.40;99.90
18225;DHT22;9237;48.590;8.854;2023-04-10T07:19:28;10.80;99.90
18225;DHT22;9237;48.590;8.854;2023-04-10T07:21:54;11.10;99.90
18225;DHT22;9237;48.590;8.854;2023-04-10T07:24:21;11.50;99.90
18225;DHT22;9237;48.590;8.854;2023-04-10T07:26:48;11.70;99.90
18225;DHT22;9237;48.590;8.854;2023-04-10T07:29:16;12.10;99.90
18225;DHT22;9237;48.590;8.854;2023-04-10T07:31:43;12.70;98.80
18225;DHT22;9237;48.590;8.854;2023-04-10T07:34:10;13.10;96.80
18225;DHT22;9237;48.590;8.854;2023-04-10T07:36:37;12.70;95.80
18225;DHT22;9237;48.590;8.854;2023-04-10T07:39:04;12.70;95.30
18225;DHT22;9237;48.590;8.854;2023-04-10T07:41:31;12.90;95.20
18225;DHT22;9237;48.590;8.854;2023-04-10T07:43:58;13.20;94.70
18225;DHT22;9237;48.590;8.854;2023-04-10T07:46:26;13.50;94.30
18225;DHT22;9237;48.590;8.854;2023-04-10T07:48:53;14.00;93.90
18225;DHT22;9237;48.590;8.854;2023-04-10T07:51:20;14.10;91.70
18225;DHT22;9237;48.590;8.854;2023-04-10T07:53:47;14.40;92.30
18225;DHT22;9237;48.590;8.854;2023-04-10T07:56:15;14.80;91.60
18225;DHT22;9237;48.590;8.854;2023-04-10T07:58:42;14.80;90.60
18225;DHT22;9237;48.590;8.854;2023-04-10T08:01:09;15.10;90.50
18225;DHT22;9237;48.590;8.854;2023-04-10T08:03:43;15.30;88.90
18225;DHT22;9237;48.590;8.854;2023-04-10T08:06:11;15.70;89.10
18225;DHT22;9237;48.590;8.854;2023-04-10T08:08:39;15.10;87.50
18225;DHT22;9237;48.590;8.854;2023-04-10T08:11:21;15.10;87.50
18225;DHT22;9237;48.590;8.854;2023-04-10T08:13:49;15.20;86.00
18225;DHT22;9237;48.590;8.854;2023-04-10T08:16:17;15.80;84.50
18225;DHT22;9237;48.590;8.854;2023-04-10T08:18:45;15.80;84.00
18225;DHT22;9237;48.590;8.854;2023-04-10T08:21:12;16.10;82.80
18225;DHT22;9237;48.590;8.854;2023-04-10T08:23:39;16.20;81.50
18225;DHT22;9237;48.590;8.854;2023-04-10T08:26:06;16.10;80.70
18225;DHT22;9237;48.590;8.854;2023-04-10T08:28:33;16.00;78.20
18225;DHT22;9237;48.590;8.854;2023-04-10T08:31:00;15.90;79.60
18225;DHT22;9237;48.590;8.854;2023-04-10T08:33:27;15.90;77.20
18225;DHT22;9237;48.590;8.854;2023-04-10T08:35:55;16.10;76.90
18225;DHT22;9237;48.590;8.854;2023-04-10T08:38:22;16.20;75.90
18225;DHT22;9237;48.590;8.854;2023-04-10T08:40:49;16.70;75.00
18225;DHT22;9237;48.590;8.854;2023-04-10T08:43:16;16.50;73.50
18225;DHT22;9237;48.590;8.854;2023-04-10T08:45:43;16.70;72.50
18225;DHT22;9237;48.590;8.854;2023-04-10T08:48:10;16.70;73.30
18225;DHT22;9237;48.590;8.854;2023-04-10T08:50:41;17.00;72.60
18225;DHT22;9237;48.590;8.854;2023-04-10T08:53:11;17.10;70.90
18225;DHT22;9237;48.590;8.854;2023-04-10T08:55:38;17.20;69.40
18225;DHT22;9237;48.590;8.854;2023-04-10T08:58:06;17.30;70.10
18225;DHT22;9237;48.590;8.854;2023-04-10T09:00:34;17.20;69.70
18225;DHT22;9237;48.590;8.854;2023-04-10T09:03:03;17.60;69.70
18225;DHT22;9237;48.590;8.854;2023-04-10T09:05:34;18.50;67.90
18225;DHT22;9237;48.590;8.854;2023-04-10T09:08:01;19.20;66.30
18225;DHT22;9237;48.590;8.854;2023-04-10T09:10:29;18.90;66.90
18225;DHT22;9237;48.590;8.854;2023-04-10T09:12:56;18.20;64.80
18225;DHT22;9237;48.590;8.854;2023-04-10T09:15:23;18.30;65.10
18225;DHT22;9237;48.590;8.854;2023-04-10T09:17:54;18.70;64.50
18225;DHT22;9237;48.590;8.854;2023-04-10T09:20:22;18.60;64.90
18225;DHT22;9237;48.590;8.854;2023-04-10T09:22:49;19.40;64.70
18225;DHT22;9237;48.590;8.854;2023-04-10T09:25:32;19.40;65.90
18225;DHT22;9237;48.590;8.854;2023-04-10T09:28:00;18.70;62.90
18225;DHT22;9237;48.590;8.854;2023-04-10T09:30:38;18.30;63.60
18225;DHT22;9237;48.590;8.854;2023-04-10T09:33:26;18.60;64.50
18225;DHT22;9237;48.590;8.854;2023-04-10T09:35:56;19.30;62.50
18225;DHT22;9237;48.590;8.854;2023-04-10T09:38:24;19.30;62.20
18225;DHT22;9237;48.590;8.854;2023-04-10T09:40:52;19.60;60.40
18225;DHT22;9237;48.590;8.854;2023-04-10T09:43:31;20.20;61.40
18225;DHT22;9237;48.590;8.854;2023-04-10T09:45:58;20.30;59.50
18225;DHT22;9237;48.590;8.854;2023-04-10T09:48:25;20.70;59.10
18225;DHT22;9237;48.590;8.854;2023-04-10T09:50:52;20.80;58.10
18225;DHT22;9237;48.590;8.854;2023-04-10T09:53:19;20.40;57.20
18225;DHT22;9237;48.590;8.854;2023-04-10T09:55:48;20.60;57.40
18225;DHT22;9237;48.590;8.854;2023-04-10T09:58:16;20.60;56.70
18225;DHT22;9237;48.590;8.854;2023-04-10T10:00:46;20.60;56.90
18225;DHT22;9237;48.590;8.854;2023-04-10T10:03:14;20.70;58.10
18225;DHT22;9237;48.590;8.854;2023-04-10T10:05:43;20.60;55.80
18225;DHT22;9237;48.590;8.854;2023-04-10T10:08:11;20.70;58.00
18225;DHT22;9237;48.590;8.854;2023-04-10T10:10:41;20.60;56.00
18225;DHT22;9237;48.590;8.854;2023-04-10T10:13:19;20.70;55.90
18225;DHT22;9237;48.590;8.854;2023-04-10T10:15:53;20.50;55.70
18225;DHT22;9237;48.590;8.854;2023-04-10T10:18:30;20.60;55.80
18225;DHT22;9237;48.590;8.854;2023-04-10T10:20:58;20.60;56.30
18225;DHT22;9237;48.590;8.854;2023-04-10T10:23:26;20.70;56.50
18225;DHT22;9237;48.590;8.854;2023-04-10T10:25:55;20.70;54.20
18225;DHT22;9237;48.590;8.854;2023-04-10T10:28:27;21.00;54.50
18225;DHT22;9237;48.590;8.854;2023-04-10T10:30:57;21.40;54.60
18225;DHT22;9237;48.590;8.854;2023-04-10T10:33:24;21.50;53.40
18225;DHT22;9237;48.590;8.854;2023-04-10T10:35:52;21.70;54.30
18225;DHT22;9237;48.590;8.854;2023-04-10T10:38:19;21.50;52.80
18225;DHT22;9237;48.590;8.854;2023-04-10T10:40:53;21.80;53.00
18225;DHT22;9237;48.590;8.854;2023-04-10T10:43:26;21.80;50.00
18225;DHT22;9237;48.590;8.854;2023-04-10T10:46:00;21.40;51.90
18225;DHT22;9237;48.590;8.854;2023-04-10T10:48:28;21.10;51.80
18225;DHT22;9237;48.590;8.854;2023-04-10T10:50:56;20.90;52.30
18225;DHT22;9237;48.590;8.854;2023-04-10T10:53:37;21.00;52.00
18225;DHT22;9237;48.590;8.854;2023-04-10T10:56:33;20.90;52.40
18225;DHT22;9237;48.590;8.854;2023-04-10T10:59:02;21.50;54.30
18225;DHT22;9237;48.590;8.854;2023-04-10T11:01:29;22.20;51.00
18225;DHT22;9237;48.590;8.854;2023-04-10T11:03:56;22.30;48.40
18225;DHT22;9237;48.590;8.854;2023-04-10T11:06:47;21.90;49.60
18225;DHT22;9237;48.590;8.854;2023-04-10T11:12:26;21.30;48.70
18225;DHT22;9237;48.590;8.854;2023-04-10T11:14:59;21.70;49.20
18225;DHT22;9237;48.590;8.854;2023-04-10T11:17:48;22.40;48.10
18225;DHT22;9237;48.590;8.854;2023-04-10T11:20:16;22.30;49.80
18225;DHT22;9237;48.590;8.854;2023-04-10T11:23:11;23.10;49.60
18225;DHT22;9237;48.590;8.854;2023-04-10T11:25:48;23.30;47.80
18225;DHT22;9237;48.590;8.854;2023-04-10T11:28:38;23.50;46.10
18225;DHT22;9237;48.590;8.854;2023-04-10T11:31:20;23.70;47.30
18225;DHT22;9237;48.590;8.854;2023-04-10T11:33:48;23.70;46.00
18225;DHT22;9237;48.590;8.854;2023-04-10T11:36:16;23.50;45.40
18225;DHT22;9237;48.590;8.854;2023-04-10T11:38:53;23.40;45.70
18225;DHT22;9237;48.590;8.854;2023-04-10T11:41:24;24.10;46.20
18225;DHT22;9237;48.590;8.854;2023-04-10T11:43:52;24.30;43.50
18225;DHT22;9237;48.590;8.854;2023-04-10T11:46:21;23.80;43.10
18225;DHT22;9237;48.590;8.854;2023-04-10T11:48:51;23.20;43.50
18225;DHT22;9237;48.590;8.854;2023-04-10T11:51:19;23.30;43.80
18225;DHT22;9237;48.590;8.854;2023-04-10T11:53:46;24.00;45.00
18225;DHT22;9237;48.590;8.854;2023-04-10T11:56:17;24.10;44.50
18225;DHT22;9237;48.590;8.854;2023-04-10T11:58:44;23.90;42.20
18225;DHT22;9237;48.590;8.854;2023-04-10T12:01:11;24.10;43.70
18225;DHT22;9237;48.590;8.854;2023-04-10T12:03:41;23.60;41.70
18225;DHT22;9237;48.590;8.854;2023-04-10T12:06:10;23.20;43.50
18225;DHT22;9237;48.590;8.854;2023-04-10T12:08:39;22.50;43.70
18225;DHT22;9237;48.590;8.854;2023-04-10T12:11:07;21.70;46.20
18225;DHT22;9237;48.590;8.854;2023-04-10T12:13:34;21.40;48.40
18225;DHT22;9237;48.590;8.854;2023-04-10T12:16:03;21.50;46.30
18225;DHT22;9237;48.590;8.854;2023-04-10T12:18:30;21.40;44.40
18225;DHT22;9237;48.590;8.854;2023-04-10T12:20:59;21.60;46.40
18225;DHT22;9237;48.590;8.854;2023-04-10T12:23:27;22.00;45.60
18225;DHT22;9237;48.590;8.854;2023-04-10T12:26:15;22.70;43.80
18225;DHT22;9237;48.590;8.854;2023-04-10T12:28:49;23.40;41.60
18225;DHT22;9237;48.590;8.854;2023-04-10T12:31:17;23.60;40.80
18225;DHT22;9237;48.590;8.854;2023-04-10T12:33:44;23.70;41.60
18225;DHT22;9237;48.590;8.854;2023-04-10T12:36:22;23.00;39.50
18225;DHT22;9237;48.590;8.854;2023-04-10T12:38:51;22.70;41.00
18225;DHT22;9237;48.590;8.854;2023-04-10T12:41:22;22.70;41.80
18225;DHT22;9237;48.590;8.854;2023-04-10T12:43:51;22.70;40.50
18225;DHT22;9237;48.590;8.854;2023-04-10T12:46:25;22.50;41.50
18225;DHT22;9237;48.590;8.854;2023-04-10T12:48:52;22.70;40.80
18225;DHT22;9237;48.590;8.854;2023-04-10T12:51:41;22.40;40.60
18225;DHT22;9237;48.590;8.854;2023-04-10T12:54:09;22.40;40.40
18225;DHT22;9237;48.590;8.854;2023-04-10T12:56:40;22.40;39.00
18225;DHT22;9237;48.590;8.854;2023-04-10T12:59:07;22.50;39.80
18225;DHT22;9237;48.590;8.854;2023-04-10T13:01:36;22.30;39.50
18225;DHT22;9237;48.590;8.854;2023-04-10T13:04:03;22.00;39.40
18225;DHT22;9237;48.590;8.854;2023-04-10T13:06:30;21.60;39.00
18225;DHT22;9237;48.590;8.854;2023-04-10T13:08:58;21.40;40.80
18225;DHT22;9237;48.590;8.854;2023-04-10T13:11:25;21.80;40.20
18225;DHT22;9237;48.590;8.854;2023-04-10T13:13:52;21.60;41.30
18225;DHT22;9237;48.590;8.854;2023-04-10T13:16:19;21.60;40.30
18225;DHT22;9237;48.590;8.854;2023-04-10T13:18:46;21.30;40.80
18225;DHT22;9237;48.590;8.854;2023-04-10T13:21:12;21.40;39.70
18225;DHT22;9237;48.590;8.854;2023-04-10T13:23:42;21.70;42.80
18225;DHT22;9237;48.590;8.854;2023-04-10T13:26:12;21.70;41.30
18225;DHT22;9237;48.590;8.854;2023-04-10T13:28:39;21.00;40.20
18225;DHT22;9237;48.590;8.854;2023-04-10T13:31:06;20.80;41.80
18225;DHT22;9237;48.590;8.854;2023-04-10T13:33:33;20.70;41.80
18225;DHT22;9237;48.590;8.854;2023-04-10T13:36:00;20.80;41.90
18225;DHT22;9237;48.590;8.854;2023-04-10T13:38:27;21.20;43.50
18225;DHT22;9237;48.590;8.854;2023-04-10T13:40:54;21.40;45.10
18225;DHT22;9237;48.590;8.854;2023-04-10T13:43:22;21.30;42.80
18225;DHT22;9237;48.590;8.854;2023-04-10T13:45:49;21.20;42.00
18225;DHT22;9237;48.590;8.854;2023-04-10T13:48:16;21.00;40.80
18225;DHT22;9237;48.590;8.854;2023-04-10T13:50:45;20.90;41.50
18225;DHT22;9237;48.590;8.854;2023-04-10T13:53:12;20.90;40.80
18225;DHT22;9237;48.590;8.854;2023-04-10T13:55:39;21.10;42.60
18225;DHT22;9237;48.590;8.854;2023-04-10T13:58:08;21.40;40.50
18225;DHT22;9237;48.590;8.854;2023-04-10T14:00:36;21.90;41.90
18225;DHT22;9237;48.590;8.854;2023-04-10T14:03:03;22.10;41.10
18225;DHT22;9237;48.590;8.854;2023-04-10T14:05:29;22.20;42.90
18225;DHT22;9237;48.590;8.854;2023-04-10T14:07:57;22.10;42.00
18225;DHT22;9237;48.590;8.854;2023-04-10T14:10:23;22.40;40.80
18225;DHT22;9237;48.590;8.854;2023-04-10T14:12:50;22.50;40.00
18225;DHT22;9237;48.590;8.854;2023-04-10T14:15:17;22.20;40.10
18225;DHT22;9237;48.590;8.854;2023-04-10T14:17:45;22.10;42.30
18225;DHT22;9237;48.590;8.854;2023-04-10T14:20:12;22.10;40.60
18225;DHT22;9237;48.590;8.854;2023-04-10T14:22:39;22.10;40.90
18225;DHT22;9237;48.590;8.854;2023-04-10T14:25:06;22.30;41.50
18225;DHT22;9237;48.590;8.854;2023-04-10T14:27:35;22.30;41.60
18225;DHT22;9237;48.590;8.854;2023-04-10T14:30:02;22.40;41.50
18225;DHT22;9237;48.590;8.854;2023-04-10T14:32:29;22.80;40.70
18225;DHT22;9237;48.590;8.854;2023-04-10T14:34:57;22.90;40.30
18225;DHT22;9237;48.590;8.854;2023-04-10T14:37:24;23.00;38.10
18225;DHT22;9237;48.590;8.854;2023-04-10T14:39:51;22.90;38.90
18225;DHT22;9237;48.590;8.854;2023-04-10T14:42:18;22.80;37.30
18225;DHT22;9237;48.590;8.854;2023-04-10T14:44:45;22.60;36.60
18225;DHT22;9237;48.590;8.854;2023-04-10T14:47:11;22.30;39.10
18225;DHT22;9237;48.590;8.854;2023-04-10T14:49:39;22.40;38.70
18225;DHT22;9237;48.590;8.854;2023-04-10T14:52:07;22.50;39.10
18225;DHT22;9237;48.590;8.854;2023-04-10T14:54:34;22.20;38.70
18225;DHT22;9237;48.590;8.854;2023-04-10T14:57:01;22.20;39.80
18225;DHT22;9237;48.590;8.854;2023-04-10T14:59:28;21.90;38.80
18225;DHT22;9237;48.590;8.854;2023-04-10T15:01:56;22.00;38.80
18225;DHT22;9237;48.590;8.854;2023-04-10T15:04:22;21.90;40.30
18225;DHT22;9237;48.590;8.854;2023-04-10T15:06:49;22.10;40.60
18225;DHT22;9237;48.590;8.854;2023-04-10T15:09:18;22.20;39.60
18225;DHT22;9237;48.590;8.854;2023-04-10T15:11:45;22.20;38.10
18225;DHT22;9237;48.590;8.854;2023-04-10T15:14:12;22.10;39.20
18225;DHT22;9237;48.590;8.854;2023-04-10T15:16:39;22.10;39.30
18225;DHT22;9237;48.590;8.854;2023-04-10T15:19:06;22.10;38.90
18225;DHT22;9237;48.590;8.854;2023-04-10T15:21:33;22.20;39.60
18225;DHT22;9237;48.590;8.854;2023-04-10T15:24:00;22.10;38.80
18225;DHT22;9237;48.590;8.854;2023-04-10T15:26:28;21.70;39.70
18225;DHT22;9237;48.590;8.854;2023-04-10T15:28:55;21.40;39.50
18225;DHT22;9237;48.590;8.854;2023-04-10T15:31:22;21.20;41.50
18225;DHT22;9237;48.590;8.854;2023-04-10T15:33:50;20.80;41.20
18225;DHT22;9237;48.590;8.854;2023-04-10T15:36:17;20.30;42.30
18225;DHT22;9237;48.590;8.854;2023-04-10T15:38:48;20.10;41.90
18225;DHT22;9237;48.590;8.854;2023-04-10T15:41:15;19.80;41.90
18225;DHT22;9237;48.590;8.854;2023-04-10T15:43:43;19.70;42.20
18225;DHT22;9237;48.590;8.854;2023-04-10T15:46:10;19.40;42.10
18225;DHT22;9237;48.590;8.854;2023-04-10T15:48:37;19.30;42.50
18225;DHT22;9237;48.590;8.854;2023-04-10T15:51:04;19.30;42.70
18225;DHT22;9237;48.590;8.854;2023-04-10T15:53:31;19.00;44.80
18225;DHT22;9237;48.590;8.854;2023-04-10T15:55:58;18.90;44.50
18225;DHT22;9237;48.590;8.854;2023-04-10T15:58:25;18.90;45.40
18225;DHT22;9237;48.590;8.854;2023-04-10T16:00:53;18.80;45.40
18225;DHT22;9237;48.590;8.854;2023-04-10T16:03:20;18.70;46.80